createdAt,value
2023-01-19T17:54:59.638Z,22.20
2023-01-19T17:55:12.284Z,22.20
2023-01-19T17:55:20.565Z,22.20
2023-01-19T17:55:30.600Z,22.20
2023-01-19T17:55:40.566Z,22.22
2023-01-19T17:55:50.575Z,22.20
2023-01-19T17:56:00.653Z,22.23
2023-01-19T17:56:10.572Z,22.25
2023-01-19T17:56:20.558Z,22.25
2023-01-19T17:56:30.566Z,22.28
2023-01-19T17:56:40.568Z,22.32
2023-01-19T17:56:50.561Z,22.37
2023-01-19T17:57:00.563Z,22.38
2023-01-19T17:57:10.662Z,22.41
2023-01-19T17:57:20.534Z,22.44
2023-01-19T17:57:30.536Z,22.47
2023-01-19T17:57:40.538Z,22.50
2023-01-19T17:57:50.593Z,22.50
2023-01-19T17:58:00.582Z,22.50
2023-01-19T17:58:10.531Z,22.49
2023-01-19T17:58:20.508Z,22.50
2023-01-19T17:58:30.539Z,22.49
2023-01-19T17:58:40.504Z,22.47
2023-01-19T17:58:50.519Z,22.49
2023-01-19T17:59:00.781Z,22.49
2023-01-19T17:59:10.513Z,22.47
2023-01-19T17:59:20.500Z,22.46
2023-01-19T17:59:30.531Z,22.46
2023-01-19T17:59:41.614Z,22.46
2023-01-19T17:59:50.505Z,22.46
2023-01-19T18:00:27.484Z,22.54
2023-01-19T18:00:37.585Z,22.60
2023-01-19T18:00:47.680Z,22.74
2023-01-19T18:00:57.826Z,22.83
2023-01-19T18:01:07.987Z,22.82
2023-01-19T18:01:18.207Z,22.82
2023-01-19T18:01:28.317Z,22.80
2023-01-19T18:01:38.399Z,22.77
2023-01-19T18:01:48.436Z,22.74
2023-01-19T18:02:00.777Z,22.71
2023-01-19T18:02:08.612Z,22.71
2023-01-19T18:02:18.801Z,22.69
2023-01-19T18:02:28.772Z,22.69
2023-01-19T18:02:40.852Z,22.71
2023-01-19T18:02:49.118Z,22.71
2023-01-19T18:02:59.224Z,-39.76
2023-01-19T18:03:09.077Z,-39.76
2023-01-19T18:03:19.114Z,-39.76
